Gentle Leader — C6WY9 — position and weather

sailwx.info

Track history (hours):
 
Tides and Currents Weather Stations Pressure Air Temp Water Temp Dewpoint Dewpoint Depression Visibility Wind Speed Wind Dir Waves Ship Positions

Gentle Leader

Last reported at 2015-Apr-21 07:33 UTC. Time now 2015-Apr-21 08:21 UTC.
Position N 35°30' E 139°46'.

Length 200 m; draft 8.4 m.

Type: Cargo ship. MMSI: 311003300.

Date/timePositionNaut miles runAvg speedWind from/ knotsBaromVisibWave heightAir tempDewpointWater temp
2015-Apr-21 07:33N 35°30' E 139°46'0 0.0
2015-Apr-21 06:33N 35°30' E 139°46'0 0.0
2015-Apr-21 05:33N 35°30' E 139°46'0 0.0
2015-Apr-21 04:33N 35°30' E 139°46'0 0.0
2015-Apr-21 03:33N 35°30' E 139°46'0 0.0
2015-Apr-21 02:33N 35°30' E 139°46'0 0.0
2015-Apr-21 01:30N 35°30' E 139°46'0 0.0
2015-Apr-21 00:30N 35°30' E 139°46'0 0.0
2015-Apr-20 23:33N 35°30' E 139°46'0 0.0
2015-Apr-20 22:30N 35°30' E 139°46'0 0.0
2015-Apr-20 21:33N 35°30' E 139°46'0 0.0
2015-Apr-20 20:30N 35°30' E 139°46'0 0.0
2015-Apr-20 19:30N 35°30' E 139°46'0 0.0
2015-Apr-20 18:33N 35°30' E 139°46'0 0.0
2015-Apr-20 17:33N 35°30' E 139°46'0 0.0
2015-Apr-20 16:30N 35°30' E 139°46'0 0.0
2015-Apr-20 15:33N 35°30' E 139°46'0 0.0
2015-Apr-20 14:30N 35°30' E 139°46'0 0.0
2015-Apr-20 13:30N 35°30' E 139°46'0 0.0
2015-Apr-20 12:33N 35°30' E 139°46'0 0.0
2015-Apr-20 11:33N 35°30' E 139°46'0 0.0
2015-Apr-20 10:33N 35°30' E 139°46'0 0.0
2015-Apr-20 09:30N 35°30' E 139°46'0 0.0
2015-Apr-20 08:33N 35°30' E 139°46'0 0.0
2015-Apr-20 07:33N 35°30' E 139°46'0 0.0
2015-Apr-20 04:31N 35°30' E 139°46'0 0.0
2015-Apr-20 03:31N 35°30' E 139°46'0 0.0
2015-Apr-20 02:31N 35°30' E 139°46'0 0.0
2015-Apr-20 01:31N 35°30' E 139°46'0 0.0
2015-Apr-20 00:31N 35°30' E 139°46'0 0.0
2015-Apr-19 23:31N 35°30' E 139°46'0 0.2
2015-Apr-19 22:33N 35°30' E 139°46'8 7.8
2015-Apr-19 21:33N 35°22' E 139°45'1211.6
2015-Apr-19 20:34N 35°10' E 139°47'11 9.7
2015-Apr-19 19:28N 35°00' E 139°42'24610.6
2015-Apr-18 20:16N 33°53' E 134°55'811.3
2015-Apr-18 19:31N 34°02' E 134°56'6 6.1
2015-Apr-18 18:33N 34°08' E 134°56'10 9.7
2015-Apr-18 17:33N 34°17' E 134°58'1514.8
2015-Apr-18 16:34N 34°31' E 135°05'9 8.9
2015-Apr-18 15:30N 34°36' E 134°56'11 0.5
2015-Apr-17 16:29N 34°32' E 134°43'1314.1
2015-Apr-17 15:33N 34°37' E 134°58'9 8.6
2015-Apr-17 14:33N 34°34' E 135°08'1413.5
2015-Apr-17 13:33N 34°21' E 135°02'1312.9
2015-Apr-17 12:32N 34°08' E 134°60'14 9.5
2015-Apr-17 11:04N 33°55' E 134°58'  
2015-Apr-14 14:28N 34°30' E 138°25'5413.0
2015-Apr-14 10:20N 34°53' E 139°23'1215.3
2015-Apr-14 09:33N 35°00' E 139°35'1414.1
2015-Apr-14 08:34N 35°11' E 139°46'1212.3
2015-Apr-14 07:34N 35°23' E 139°42'5 5.1
2015-Apr-14 06:33N 35°28' E 139°41'0 0.0
2015-Apr-14 05:33N 35°28' E 139°41'0 0.0
2015-Apr-14 04:30N 35°28' E 139°41'0 0.0
2015-Apr-14 03:30N 35°28' E 139°41'0 0.0
2015-Apr-14 02:30N 35°28' E 139°41'0 0.0
2015-Apr-14 01:33N 35°28' E 139°41'0 0.0
2015-Apr-14 00:33N 35°28' E 139°41'0 0.0
2015-Apr-13 23:30N 35°28' E 139°41'0 0.4
2015-Apr-13 22:33N 35°28' E 139°41'3 3.4
2015-Apr-13 21:33N 35°26' E 139°44'8 8.0
2015-Apr-13 20:33N 35°18' E 139°45'1010.0
2015-Apr-13 19:33N 35°08' E 139°46'8 8.2
2015-Apr-13 18:33N 35°01' E 139°43'  
Track history (hours):
 
Tides and Currents Weather Stations Pressure Air Temp Water Temp Dewpoint Dewpoint Depression Visibility Wind Speed Wind Dir Waves Ship Positions

Gentle Leader

Last reported at 2015-Apr-21 07:33 UTC. Time now 2015-Apr-21 08:21 UTC.
Position N 35°30' E 139°46'.

Length 200 m; draft 8.4 m.

Type: Cargo ship. MMSI: 311003300.

Date/timePositionNaut miles runAvg speedWind from/ knotsBaromVisibWave heightAir tempDewpointWater temp
2015-Apr-21 07:33N 35°30' E 139°46'0 0.0
2015-Apr-21 06:33N 35°30' E 139°46'0 0.0
2015-Apr-21 05:33N 35°30' E 139°46'0 0.0
2015-Apr-21 04:33N 35°30' E 139°46'0 0.0
2015-Apr-21 03:33N 35°30' E 139°46'0 0.0
2015-Apr-21 02:33N 35°30' E 139°46'0 0.0
2015-Apr-21 01:30N 35°30' E 139°46'0 0.0
2015-Apr-21 00:30N 35°30' E 139°46'0 0.0
2015-Apr-20 23:33N 35°30' E 139°46'0 0.0
2015-Apr-20 22:30N 35°30' E 139°46'0 0.0
2015-Apr-20 21:33N 35°30' E 139°46'0 0.0
2015-Apr-20 20:30N 35°30' E 139°46'0 0.0
2015-Apr-20 19:30N 35°30' E 139°46'0 0.0
2015-Apr-20 18:33N 35°30' E 139°46'0 0.0
2015-Apr-20 17:33N 35°30' E 139°46'0 0.0
2015-Apr-20 16:30N 35°30' E 139°46'0 0.0
2015-Apr-20 15:33N 35°30' E 139°46'0 0.0
2015-Apr-20 14:30N 35°30' E 139°46'0 0.0
2015-Apr-20 13:30N 35°30' E 139°46'0 0.0
2015-Apr-20 12:33N 35°30' E 139°46'0 0.0
2015-Apr-20 11:33N 35°30' E 139°46'0 0.0
2015-Apr-20 10:33N 35°30' E 139°46'0 0.0
2015-Apr-20 09:30N 35°30' E 139°46'0 0.0
2015-Apr-20 08:33N 35°30' E 139°46'0 0.0
2015-Apr-20 07:33N 35°30' E 139°46'0 0.0
2015-Apr-20 04:31N 35°30' E 139°46'0 0.0
2015-Apr-20 03:31N 35°30' E 139°46'0 0.0
2015-Apr-20 02:31N 35°30' E 139°46'0 0.0
2015-Apr-20 01:31N 35°30' E 139°46'0 0.0
2015-Apr-20 00:31N 35°30' E 139°46'0 0.0
2015-Apr-19 23:31N 35°30' E 139°46'0 0.2
2015-Apr-19 22:33N 35°30' E 139°46'8 7.8
2015-Apr-19 21:33N 35°22' E 139°45'1211.6
2015-Apr-19 20:34N 35°10' E 139°47'11 9.7
2015-Apr-19 19:28N 35°00' E 139°42'24610.6
2015-Apr-18 20:16N 33°53' E 134°55'811.3
2015-Apr-18 19:31N 34°02' E 134°56'6 6.1
2015-Apr-18 18:33N 34°08' E 134°56'10 9.7
2015-Apr-18 17:33N 34°17' E 134°58'1514.8
2015-Apr-18 16:34N 34°31' E 135°05'9 8.9
2015-Apr-18 15:30N 34°36' E 134°56'11 0.5
2015-Apr-17 16:29N 34°32' E 134°43'1314.1
2015-Apr-17 15:33N 34°37' E 134°58'9 8.6
2015-Apr-17 14:33N 34°34' E 135°08'1413.5
2015-Apr-17 13:33N 34°21' E 135°02'1312.9
2015-Apr-17 12:32N 34°08' E 134°60'14 9.5
2015-Apr-17 11:04N 33°55' E 134°58'  
2015-Apr-14 14:28N 34°30' E 138°25'5413.0
2015-Apr-14 10:20N 34°53' E 139°23'1215.3
2015-Apr-14 09:33N 35°00' E 139°35'1414.1
2015-Apr-14 08:34N 35°11' E 139°46'1212.3
2015-Apr-14 07:34N 35°23' E 139°42'5 5.1
2015-Apr-14 06:33N 35°28' E 139°41'0 0.0
2015-Apr-14 05:33N 35°28' E 139°41'0 0.0
2015-Apr-14 04:30N 35°28' E 139°41'0 0.0
2015-Apr-14 03:30N 35°28' E 139°41'0 0.0
2015-Apr-14 02:30N 35°28' E 139°41'0 0.0
2015-Apr-14 01:33N 35°28' E 139°41'0 0.0
2015-Apr-14 00:33N 35°28' E 139°41'0 0.0
2015-Apr-13 23:30N 35°28' E 139°41'0 0.4
2015-Apr-13 22:33N 35°28' E 139°41'3 3.4
2015-Apr-13 21:33N 35°26' E 139°44'8 8.0
2015-Apr-13 20:33N 35°18' E 139°45'1010.0
2015-Apr-13 19:33N 35°08' E 139°46'8 8.2
2015-Apr-13 18:33N 35°01' E 139°43'  

Dump ship's entire track history